Syracuse, Indiana
Current Conditions -  °F | °C
As of 8:53 PM on Saturday 25 Oct 2014 (Local Time) from KGSH Reporting Station
Clear Clear  
Wind Chill: 54°   Ceiling: Unl
Heat Index: 54°   Visibility: 10mi
Dew Point: 37°   Wind: 7mph
Humidity: 53%   Direction: 300°WNW
Pressure: 29.89"   Gusts: NA
Location:  41.43°N, 85.75°W
Report Text: KGSH 260053Z AUTO 30006KT 10SM CLR 12/03 A2989 RMK AO2 SLP122 T01220028
Loading
Personal Weather Stations






























Interactive Weather Map
Tropical Storm Tracking
New forecast layout! Learn more

10-Day Weather Forecast

Advertisements
Track Severe Weather on mobile